sensor_id;sensor_type;location;lat;lon;timestamp;P1;durP1;ratioP1;P2;durP2;ratioP2
20861;SDS011;10591;52.532;13.348;2023-08-17T00:02:20;4.28;;;3.87;;
20861;SDS011;10591;52.532;13.348;2023-08-17T00:04:51;5.00;;;4.22;;
20861;SDS011;10591;52.532;13.348;2023-08-17T00:07:23;4.92;;;3.90;;
20861;SDS011;10591;52.532;13.348;2023-08-17T00:09:54;5.80;;;4.05;;
20861;SDS011;10591;52.532;13.348;2023-08-17T00:12:25;5.65;;;4.45;;
20861;SDS011;10591;52.532;13.348;2023-08-17T00:14:56;4.70;;;4.20;;
20861;SDS011;10591;52.532;13.348;2023-08-17T00:17:26;5.20;;;4.42;;
20861;SDS011;10591;52.532;13.348;2023-08-17T00:19:57;6.70;;;4.28;;
20861;SDS011;10591;52.532;13.348;2023-08-17T00:22:27;4.90;;;4.40;;
20861;SDS011;10591;52.532;13.348;2023-08-17T00:24:58;4.83;;;4.37;;
20861;SDS011;10591;52.532;13.348;2023-08-17T00:27:28;8.95;;;5.33;;
20861;SDS011;10591;52.532;13.348;2023-08-17T00:29:59;5.35;;;4.12;;
20861;SDS011;10591;52.532;13.348;2023-08-17T00:32:30;5.80;;;4.17;;
20861;SDS011;10591;52.532;13.348;2023-08-17T00:35:00;6.35;;;4.35;;
20861;SDS011;10591;52.532;13.348;2023-08-17T00:37:31;4.65;;;4.22;;
20861;SDS011;10591;52.532;13.348;2023-08-17T00:40:02;6.30;;;4.67;;
20861;SDS011;10591;52.532;13.348;2023-08-17T00:42:33;6.45;;;4.95;;
20861;SDS011;10591;52.532;13.348;2023-08-17T00:45:04;6.05;;;4.20;;
20861;SDS011;10591;52.532;13.348;2023-08-17T00:47:37;5.95;;;4.50;;
20861;SDS011;10591;52.532;13.348;2023-08-17T00:50:12;5.97;;;4.45;;
20861;SDS011;10591;52.532;13.348;2023-08-17T00:52:44;5.40;;;4.40;;
20861;SDS011;10591;52.532;13.348;2023-08-17T00:55:15;4.83;;;3.98;;
20861;SDS011;10591;52.532;13.348;2023-08-17T00:57:46;5.10;;;4.30;;
20861;SDS011;10591;52.532;13.348;2023-08-17T01:00:17;5.30;;;4.50;;
20861;SDS011;10591;52.532;13.348;2023-08-17T01:02:49;6.62;;;4.75;;
20861;SDS011;10591;52.532;13.348;2023-08-17T01:05:21;5.80;;;4.40;;
20861;SDS011;10591;52.532;13.348;2023-08-17T01:07:58;6.53;;;5.15;;
20861;SDS011;10591;52.532;13.348;2023-08-17T01:10:26;6.15;;;4.47;;
20861;SDS011;10591;52.532;13.348;2023-08-17T01:15:36;5.87;;;4.05;;
20861;SDS011;10591;52.532;13.348;2023-08-17T01:20:49;4.95;;;4.42;;
20861;SDS011;10591;52.532;13.348;2023-08-17T01:23:24;4.78;;;4.30;;
20861;SDS011;10591;52.532;13.348;2023-08-17T01:25:54;5.40;;;4.00;;
20861;SDS011;10591;52.532;13.348;2023-08-17T01:28:26;5.28;;;4.62;;
20861;SDS011;10591;52.532;13.348;2023-08-17T01:30:58;9.45;;;4.85;;
20861;SDS011;10591;52.532;13.348;2023-08-17T01:33:50;5.53;;;4.15;;
20861;SDS011;10591;52.532;13.348;2023-08-17T01:36:45;5.15;;;4.50;;
20861;SDS011;10591;52.532;13.348;2023-08-17T01:38:57;4.92;;;4.25;;
20861;SDS011;10591;52.532;13.348;2023-08-17T01:41:31;5.50;;;4.78;;
20861;SDS011;10591;52.532;13.348;2023-08-17T01:44:02;5.00;;;4.12;;
20861;SDS011;10591;52.532;13.348;2023-08-17T01:46:34;5.45;;;4.50;;
20861;SDS011;10591;52.532;13.348;2023-08-17T01:49:05;6.62;;;4.53;;
20861;SDS011;10591;52.532;13.348;2023-08-17T01:51:35;5.40;;;4.50;;
20861;SDS011;10591;52.532;13.348;2023-08-17T01:54:08;8.30;;;4.53;;
20861;SDS011;10591;52.532;13.348;2023-08-17T01:56:39;5.15;;;4.45;;
20861;SDS011;10591;52.532;13.348;2023-08-17T01:59:09;5.30;;;4.42;;
20861;SDS011;10591;52.532;13.348;2023-08-17T02:01:40;5.40;;;4.65;;
20861;SDS011;10591;52.532;13.348;2023-08-17T02:04:14;6.62;;;4.70;;
20861;SDS011;10591;52.532;13.348;2023-08-17T02:06:45;6.10;;;4.50;;
20861;SDS011;10591;52.532;13.348;2023-08-17T02:09:17;8.35;;;4.50;;
20861;SDS011;10591;52.532;13.348;2023-08-17T02:11:48;5.62;;;4.40;;
20861;SDS011;10591;52.532;13.348;2023-08-17T02:14:19;5.00;;;4.50;;
20861;SDS011;10591;52.532;13.348;2023-08-17T02:16:49;5.90;;;4.67;;
20861;SDS011;10591;52.532;13.348;2023-08-17T02:19:22;6.80;;;4.50;;
20861;SDS011;10591;52.532;13.348;2023-08-17T02:21:52;10.53;;;4.78;;
20861;SDS011;10591;52.532;13.348;2023-08-17T02:24:23;4.80;;;4.40;;
20861;SDS011;10591;52.532;13.348;2023-08-17T02:26:54;4.85;;;4.45;;
20861;SDS011;10591;52.532;13.348;2023-08-17T02:29:24;7.22;;;4.55;;
20861;SDS011;10591;52.532;13.348;2023-08-17T02:31:55;5.92;;;5.15;;
20861;SDS011;10591;52.532;13.348;2023-08-17T02:34:26;6.75;;;4.70;;
20861;SDS011;10591;52.532;13.348;2023-08-17T02:36:56;6.42;;;4.58;;
20861;SDS011;10591;52.532;13.348;2023-08-17T02:39:27;5.40;;;4.65;;
20861;SDS011;10591;52.532;13.348;2023-08-17T02:41:58;6.37;;;4.28;;
20861;SDS011;10591;52.532;13.348;2023-08-17T02:44:29;7.58;;;4.75;;
20861;SDS011;10591;52.532;13.348;2023-08-17T02:47:01;5.83;;;4.67;;
20861;SDS011;10591;52.532;13.348;2023-08-17T02:49:32;5.67;;;4.60;;
20861;SDS011;10591;52.532;13.348;2023-08-17T02:52:04;5.17;;;4.60;;
20861;SDS011;10591;52.532;13.348;2023-08-17T02:54:35;7.25;;;4.87;;
20861;SDS011;10591;52.532;13.348;2023-08-17T02:57:06;7.00;;;4.70;;
20861;SDS011;10591;52.532;13.348;2023-08-17T02:59:37;5.05;;;4.58;;
20861;SDS011;10591;52.532;13.348;2023-08-17T03:02:10;5.53;;;4.47;;
20861;SDS011;10591;52.532;13.348;2023-08-17T03:04:41;6.80;;;4.80;;
20861;SDS011;10591;52.532;13.348;2023-08-17T03:07:15;5.78;;;4.80;;
20861;SDS011;10591;52.532;13.348;2023-08-17T03:09:46;6.37;;;4.40;;
20861;SDS011;10591;52.532;13.348;2023-08-17T03:12:16;6.33;;;4.28;;
20861;SDS011;10591;52.532;13.348;2023-08-17T03:14:47;8.23;;;4.58;;
20861;SDS011;10591;52.532;13.348;2023-08-17T03:17:17;5.10;;;4.33;;
20861;SDS011;10591;52.532;13.348;2023-08-17T03:19:48;5.10;;;4.60;;
20861;SDS011;10591;52.532;13.348;2023-08-17T03:22:18;6.05;;;4.78;;
20861;SDS011;10591;52.532;13.348;2023-08-17T03:24:49;7.10;;;4.30;;
20861;SDS011;10591;52.532;13.348;2023-08-17T03:27:20;8.23;;;4.75;;
20861;SDS011;10591;52.532;13.348;2023-08-17T03:29:51;4.42;;;4.03;;
20861;SDS011;10591;52.532;13.348;2023-08-17T03:32:22;5.42;;;4.00;;
20861;SDS011;10591;52.532;13.348;2023-08-17T03:34:52;4.40;;;4.00;;
20861;SDS011;10591;52.532;13.348;2023-08-17T03:37:23;4.53;;;4.12;;
20861;SDS011;10591;52.532;13.348;2023-08-17T03:39:54;4.05;;;3.75;;
20861;SDS011;10591;52.532;13.348;2023-08-17T03:42:25;4.53;;;4.12;;
20861;SDS011;10591;52.532;13.348;2023-08-17T03:44:55;6.28;;;4.10;;
20861;SDS011;10591;52.532;13.348;2023-08-17T03:47:26;5.00;;;3.40;;
20861;SDS011;10591;52.532;13.348;2023-08-17T03:49:57;4.95;;;3.55;;
20861;SDS011;10591;52.532;13.348;2023-08-17T03:52:28;5.67;;;3.58;;
20861;SDS011;10591;52.532;13.348;2023-08-17T03:54:58;4.53;;;3.37;;
20861;SDS011;10591;52.532;13.348;2023-08-17T03:57:29;3.90;;;3.25;;
20861;SDS011;10591;52.532;13.348;2023-08-17T04:00:01;6.75;;;3.45;;
20861;SDS011;10591;52.532;13.348;2023-08-17T04:02:34;4.33;;;3.45;;
20861;SDS011;10591;52.532;13.348;2023-08-17T04:05:06;3.62;;;3.33;;
20861;SDS011;10591;52.532;13.348;2023-08-17T04:07:37;4.78;;;3.42;;
20861;SDS011;10591;52.532;13.348;2023-08-17T04:10:10;5.20;;;3.42;;
20861;SDS011;10591;52.532;13.348;2023-08-17T04:12:40;3.42;;;3.12;;
20861;SDS011;10591;52.532;13.348;2023-08-17T04:15:11;4.08;;;3.20;;
20861;SDS011;10591;52.532;13.348;2023-08-17T04:17:42;7.20;;;3.47;;
20861;SDS011;10591;52.532;13.348;2023-08-17T04:20:12;4.10;;;3.12;;
20861;SDS011;10591;52.532;13.348;2023-08-17T04:22:43;5.67;;;3.25;;
20861;SDS011;10591;52.532;13.348;2023-08-17T04:25:14;3.67;;;3.37;;
20861;SDS011;10591;52.532;13.348;2023-08-17T04:27:44;4.78;;;3.42;;
20861;SDS011;10591;52.532;13.348;2023-08-17T04:30:21;3.30;;;2.80;;
20861;SDS011;10591;52.532;13.348;2023-08-17T04:32:47;5.42;;;3.80;;
20861;SDS011;10591;52.532;13.348;2023-08-17T04:35:20;6.15;;;3.40;;
20861;SDS011;10591;52.532;13.348;2023-08-17T04:37:50;4.00;;;3.17;;
20861;SDS011;10591;52.532;13.348;2023-08-17T04:40:21;3.60;;;3.15;;
20861;SDS011;10591;52.532;13.348;2023-08-17T04:42:52;5.17;;;3.50;;
20861;SDS011;10591;52.532;13.348;2023-08-17T04:45:23;3.67;;;3.37;;
20861;SDS011;10591;52.532;13.348;2023-08-17T04:47:54;5.90;;;3.40;;
20861;SDS011;10591;52.532;13.348;2023-08-17T04:50:24;3.30;;;2.92;;
20861;SDS011;10591;52.532;13.348;2023-08-17T04:52:55;3.77;;;3.17;;
20861;SDS011;10591;52.532;13.348;2023-08-17T04:55:25;5.40;;;3.00;;
20861;SDS011;10591;52.532;13.348;2023-08-17T04:57:56;4.03;;;3.20;;
20861;SDS011;10591;52.532;13.348;2023-08-17T05:00:27;5.75;;;3.40;;
20861;SDS011;10591;52.532;13.348;2023-08-17T05:02:57;6.22;;;3.30;;
20861;SDS011;10591;52.532;13.348;2023-08-17T05:05:28;4.55;;;3.42;;
20861;SDS011;10591;52.532;13.348;2023-08-17T05:07:58;3.42;;;3.12;;
20861;SDS011;10591;52.532;13.348;2023-08-17T05:10:29;3.60;;;3.25;;
20861;SDS011;10591;52.532;13.348;2023-08-17T05:13:00;5.17;;;3.33;;
20861;SDS011;10591;52.532;13.348;2023-08-17T05:15:30;4.28;;;3.42;;
20861;SDS011;10591;52.532;13.348;2023-08-17T05:18:01;3.92;;;3.12;;
20861;SDS011;10591;52.532;13.348;2023-08-17T05:20:33;4.47;;;3.25;;
20861;SDS011;10591;52.532;13.348;2023-08-17T05:23:03;3.33;;;3.02;;
20861;SDS011;10591;52.532;13.348;2023-08-17T05:25:34;3.80;;;3.40;;
20861;SDS011;10591;52.532;13.348;2023-08-17T05:28:05;6.65;;;3.62;;
20861;SDS011;10591;52.532;13.348;2023-08-17T05:30:35;5.25;;;3.02;;
20861;SDS011;10591;52.532;13.348;2023-08-17T05:33:06;3.67;;;3.37;;
20861;SDS011;10591;52.532;13.348;2023-08-17T05:35:37;3.20;;;2.90;;
20861;SDS011;10591;52.532;13.348;2023-08-17T05:38:08;3.15;;;2.85;;
20861;SDS011;10591;52.532;13.348;2023-08-17T05:40:41;6.85;;;3.50;;
20861;SDS011;10591;52.532;13.348;2023-08-17T05:43:11;4.62;;;3.27;;
20861;SDS011;10591;52.532;13.348;2023-08-17T05:45:42;4.20;;;3.20;;
20861;SDS011;10591;52.532;13.348;2023-08-17T05:48:15;4.47;;;3.30;;
20861;SDS011;10591;52.532;13.348;2023-08-17T05:50:47;4.17;;;3.27;;
20861;SDS011;10591;52.532;13.348;2023-08-17T05:53:17;4.08;;;3.08;;
20861;SDS011;10591;52.532;13.348;2023-08-17T05:55:48;4.97;;;3.10;;
20861;SDS011;10591;52.532;13.348;2023-08-17T05:58:19;3.83;;;3.00;;
20861;SDS011;10591;52.532;13.348;2023-08-17T06:00:49;3.62;;;2.80;;
20861;SDS011;10591;52.532;13.348;2023-08-17T06:03:20;3.42;;;3.05;;
20861;SDS011;10591;52.532;13.348;2023-08-17T06:05:52;4.20;;;3.20;;
20861;SDS011;10591;52.532;13.348;2023-08-17T06:08:23;4.40;;;3.35;;
20861;SDS011;10591;52.532;13.348;2023-08-17T06:10:53;4.75;;;3.12;;
20861;SDS011;10591;52.532;13.348;2023-08-17T06:13:24;4.95;;;3.50;;
20861;SDS011;10591;52.532;13.348;2023-08-17T06:15:55;3.60;;;3.17;;
20861;SDS011;10591;52.532;13.348;2023-08-17T06:18:27;4.67;;;3.02;;
20861;SDS011;10591;52.532;13.348;2023-08-17T06:21:00;6.92;;;3.70;;
20861;SDS011;10591;52.532;13.348;2023-08-17T06:23:30;3.15;;;2.85;;
20861;SDS011;10591;52.532;13.348;2023-08-17T06:26:04;3.87;;;3.47;;
20861;SDS011;10591;52.532;13.348;2023-08-17T06:28:36;3.58;;;3.17;;
20861;SDS011;10591;52.532;13.348;2023-08-17T06:31:07;3.98;;;3.20;;
20861;SDS011;10591;52.532;13.348;2023-08-17T06:33:38;4.15;;;3.20;;
20861;SDS011;10591;52.532;13.348;2023-08-17T06:36:09;4.15;;;3.67;;
20861;SDS011;10591;52.532;13.348;2023-08-17T06:38:42;5.53;;;3.90;;
20861;SDS011;10591;52.532;13.348;2023-08-17T06:41:13;3.25;;;2.95;;
20861;SDS011;10591;52.532;13.348;2023-08-17T06:43:43;4.08;;;3.62;;
20861;SDS011;10591;52.532;13.348;2023-08-17T06:46:14;4.53;;;3.45;;
20861;SDS011;10591;52.532;13.348;2023-08-17T06:48:45;3.85;;;2.87;;
20861;SDS011;10591;52.532;13.348;2023-08-17T06:51:16;4.50;;;4.00;;
20861;SDS011;10591;52.532;13.348;2023-08-17T06:53:46;3.58;;;3.20;;
20861;SDS011;10591;52.532;13.348;2023-08-17T06:56:17;5.72;;;3.70;;
20861;SDS011;10591;52.532;13.348;2023-08-17T06:58:48;6.22;;;3.30;;
20861;SDS011;10591;52.532;13.348;2023-08-17T07:01:19;6.05;;;4.85;;
20861;SDS011;10591;52.532;13.348;2023-08-17T07:03:50;6.87;;;3.90;;
20861;SDS011;10591;52.532;13.348;2023-08-17T07:06:21;6.33;;;4.75;;
20861;SDS011;10591;52.532;13.348;2023-08-17T07:08:51;4.60;;;3.58;;
20861;SDS011;10591;52.532;13.348;2023-08-17T07:11:22;3.87;;;3.27;;
20861;SDS011;10591;52.532;13.348;2023-08-17T07:13:53;4.33;;;3.40;;
20861;SDS011;10591;52.532;13.348;2023-08-17T07:16:23;6.35;;;3.75;;
20861;SDS011;10591;52.532;13.348;2023-08-17T07:18:54;5.17;;;3.45;;
20861;SDS011;10591;52.532;13.348;2023-08-17T07:21:25;5.22;;;3.52;;
20861;SDS011;10591;52.532;13.348;2023-08-17T07:23:56;4.08;;;3.70;;
20861;SDS011;10591;52.532;13.348;2023-08-17T07:26:26;5.95;;;3.77;;
20861;SDS011;10591;52.532;13.348;2023-08-17T07:28:57;4.03;;;3.45;;
20861;SDS011;10591;52.532;13.348;2023-08-17T07:31:27;5.25;;;3.35;;
20861;SDS011;10591;52.532;13.348;2023-08-17T07:33:58;6.40;;;3.87;;
20861;SDS011;10591;52.532;13.348;2023-08-17T07:36:29;5.47;;;3.58;;
20861;SDS011;10591;52.532;13.348;2023-08-17T07:39:01;4.30;;;3.85;;
20861;SDS011;10591;52.532;13.348;2023-08-17T07:41:31;5.08;;;3.52;;
20861;SDS011;10591;52.532;13.348;2023-08-17T07:44:05;5.08;;;3.42;;
20861;SDS011;10591;52.532;13.348;2023-08-17T07:46:36;7.25;;;3.60;;
20861;SDS011;10591;52.532;13.348;2023-08-17T07:49:07;4.20;;;3.30;;
20861;SDS011;10591;52.532;13.348;2023-08-17T07:51:39;4.40;;;4.00;;
20861;SDS011;10591;52.532;13.348;2023-08-17T07:54:10;4.12;;;3.30;;
20861;SDS011;10591;52.532;13.348;2023-08-17T07:56:41;6.95;;;4.00;;
20861;SDS011;10591;52.532;13.348;2023-08-17T07:59:12;4.87;;;3.92;;
20861;SDS011;10591;52.532;13.348;2023-08-17T08:01:42;8.60;;;4.10;;
20861;SDS011;10591;52.532;13.348;2023-08-17T08:04:13;6.03;;;3.58;;
20861;SDS011;10591;52.532;13.348;2023-08-17T08:06:44;4.95;;;3.40;;
20861;SDS011;10591;52.532;13.348;2023-08-17T08:09:15;4.60;;;3.60;;
20861;SDS011;10591;52.532;13.348;2023-08-17T08:11:46;5.30;;;3.62;;
20861;SDS011;10591;52.532;13.348;2023-08-17T08:14:17;6.55;;;3.70;;
20861;SDS011;10591;52.532;13.348;2023-08-17T08:16:47;4.25;;;3.37;;
20861;SDS011;10591;52.532;13.348;2023-08-17T08:19:18;4.37;;;3.40;;
20861;SDS011;10591;52.532;13.348;2023-08-17T08:21:50;4.85;;;3.50;;
20861;SDS011;10591;52.532;13.348;2023-08-17T08:24:23;4.65;;;3.50;;
20861;SDS011;10591;52.532;13.348;2023-08-17T08:26:55;6.22;;;3.77;;
20861;SDS011;10591;52.532;13.348;2023-08-17T08:29:41;5.30;;;3.80;;
20861;SDS011;10591;52.532;13.348;2023-08-17T08:32:12;5.72;;;3.47;;
20861;SDS011;10591;52.532;13.348;2023-08-17T08:34:44;4.97;;;3.65;;
20861;SDS011;10591;52.532;13.348;2023-08-17T08:37:15;6.60;;;4.05;;
20861;SDS011;10591;52.532;13.348;2023-08-17T08:39:51;4.17;;;3.77;;
20861;SDS011;10591;52.532;13.348;2023-08-17T08:42:23;6.65;;;4.12;;
20861;SDS011;10591;52.532;13.348;2023-08-17T08:44:57;4.03;;;3.72;;
20861;SDS011;10591;52.532;13.348;2023-08-17T08:47:27;5.35;;;4.00;;
20861;SDS011;10591;52.532;13.348;2023-08-17T08:50:01;6.22;;;4.15;;
20861;SDS011;10591;52.532;13.348;2023-08-17T08:52:35;6.28;;;4.10;;
20861;SDS011;10591;52.532;13.348;2023-08-17T08:55:11;7.33;;;5.67;;
20861;SDS011;10591;52.532;13.348;2023-08-17T08:57:51;6.72;;;4.60;;
20861;SDS011;10591;52.532;13.348;2023-08-17T09:00:24;4.72;;;4.33;;
20861;SDS011;10591;52.532;13.348;2023-08-17T09:02:55;6.75;;;4.85;;
20861;SDS011;10591;52.532;13.348;2023-08-17T09:05:26;6.03;;;4.80;;
20861;SDS011;10591;52.532;13.348;2023-08-17T09:07:57;5.12;;;4.62;;
20861;SDS011;10591;52.532;13.348;2023-08-17T09:10:29;5.08;;;4.58;;
20861;SDS011;10591;52.532;13.348;2023-08-17T09:13:01;5.30;;;4.58;;
20861;SDS011;10591;52.532;13.348;2023-08-17T09:15:33;5.83;;;4.87;;
20861;SDS011;10591;52.532;13.348;2023-08-17T09:18:04;5.00;;;4.60;;
20861;SDS011;10591;52.532;13.348;2023-08-17T09:20:44;5.60;;;5.00;;
20861;SDS011;10591;52.532;13.348;2023-08-17T09:23:18;6.33;;;5.03;;
20861;SDS011;10591;52.532;13.348;2023-08-17T09:25:51;7.85;;;4.92;;
20861;SDS011;10591;52.532;13.348;2023-08-17T09:28:23;8.45;;;5.33;;
20861;SDS011;10591;52.532;13.348;2023-08-17T09:30:56;7.45;;;4.55;;
20861;SDS011;10591;52.532;13.348;2023-08-17T09:33:29;5.47;;;4.70;;
20861;SDS011;10591;52.532;13.348;2023-08-17T09:36:00;6.12;;;4.85;;
20861;SDS011;10591;52.532;13.348;2023-08-17T09:38:31;4.60;;;4.20;;
20861;SDS011;10591;52.532;13.348;2023-08-17T09:41:02;4.37;;;3.98;;
20861;SDS011;10591;52.532;13.348;2023-08-17T09:43:38;8.15;;;4.75;;
20861;SDS011;10591;52.532;13.348;2023-08-17T09:46:09;4.20;;;3.90;;
20861;SDS011;10591;52.532;13.348;2023-08-17T09:48:40;5.17;;;4.50;;
20861;SDS011;10591;52.532;13.348;2023-08-17T09:51:15;4.75;;;4.40;;
20861;SDS011;10591;52.532;13.348;2023-08-17T09:53:51;5.62;;;4.60;;
20861;SDS011;10591;52.532;13.348;2023-08-17T09:56:24;6.35;;;4.15;;
20861;SDS011;10591;52.532;13.348;2023-08-17T09:58:57;6.42;;;4.40;;
20861;SDS011;10591;52.532;13.348;2023-08-17T10:01:28;5.55;;;4.45;;
20861;SDS011;10591;52.532;13.348;2023-08-17T10:04:00;7.85;;;4.87;;
20861;SDS011;10591;52.532;13.348;2023-08-17T10:06:33;4.35;;;4.00;;
20861;SDS011;10591;52.532;13.348;2023-08-17T10:09:07;5.03;;;4.47;;
20861;SDS011;10591;52.532;13.348;2023-08-17T10:11:40;7.67;;;4.92;;
20861;SDS011;10591;52.532;13.348;2023-08-17T10:14:13;4.85;;;4.45;;
20861;SDS011;10591;52.532;13.348;2023-08-17T10:16:50;5.97;;;4.20;;
20861;SDS011;10591;52.532;13.348;2023-08-17T10:22:18;4.60;;;4.17;;
20861;SDS011;10591;52.532;13.348;2023-08-17T10:24:50;4.60;;;4.05;;
20861;SDS011;10591;52.532;13.348;2023-08-17T10:27:22;4.55;;;3.95;;
20861;SDS011;10591;52.532;13.348;2023-08-17T10:29:54;8.30;;;4.60;;
20861;SDS011;10591;52.532;13.348;2023-08-17T10:32:26;4.97;;;4.47;;
20861;SDS011;10591;52.532;13.348;2023-08-17T10:34:58;5.17;;;4.47;;
20861;SDS011;10591;52.532;13.348;2023-08-17T10:37:29;9.03;;;4.35;;
20861;SDS011;10591;52.532;13.348;2023-08-17T10:40:02;5.12;;;4.50;;
20861;SDS011;10591;52.532;13.348;2023-08-17T10:42:34;6.97;;;4.58;;
20861;SDS011;10591;52.532;13.348;2023-08-17T10:50:43;5.45;;;4.95;;
20861;SDS011;10591;52.532;13.348;2023-08-17T10:53:16;5.85;;;4.20;;
20861;SDS011;10591;52.532;13.348;2023-08-17T10:55:48;6.42;;;4.87;;
20861;SDS011;10591;52.532;13.348;2023-08-17T10:58:21;5.20;;;4.55;;
20861;SDS011;10591;52.532;13.348;2023-08-17T11:00:55;5.28;;;4.87;;
20861;SDS011;10591;52.532;13.348;2023-08-17T11:03:26;6.53;;;4.87;;
20861;SDS011;10591;52.532;13.348;2023-08-17T11:05:58;5.60;;;5.10;;
20861;SDS011;10591;52.532;13.348;2023-08-17T11:08:39;5.92;;;5.17;;
20861;SDS011;10591;52.532;13.348;2023-08-17T11:11:12;5.10;;;4.70;;
20861;SDS011;10591;52.532;13.348;2023-08-17T11:13:45;5.40;;;4.53;;
20861;SDS011;10591;52.532;13.348;2023-08-17T11:16:22;7.67;;;5.20;;
20861;SDS011;10591;52.532;13.348;2023-08-17T11:18:51;5.65;;;4.70;;
20861;SDS011;10591;52.532;13.348;2023-08-17T11:21:24;5.00;;;4.60;;
20861;SDS011;10591;52.532;13.348;2023-08-17T11:23:55;5.80;;;5.20;;
20861;SDS011;10591;52.532;13.348;2023-08-17T11:26:27;5.30;;;4.80;;
20861;SDS011;10591;52.532;13.348;2023-08-17T11:28:59;5.12;;;4.72;;
20861;SDS011;10591;52.532;13.348;2023-08-17T11:31:34;6.03;;;5.12;;
20861;SDS011;10591;52.532;13.348;2023-08-17T11:34:04;5.45;;;4.95;;
20861;SDS011;10591;52.532;13.348;2023-08-17T11:36:35;5.03;;;4.62;;
20861;SDS011;10591;52.532;13.348;2023-08-17T11:39:07;6.05;;;4.80;;
20861;SDS011;10591;52.532;13.348;2023-08-17T11:41:40;6.47;;;5.50;;
20861;SDS011;10591;52.532;13.348;2023-08-17T11:44:10;5.92;;;5.42;;
20861;SDS011;10591;52.532;13.348;2023-08-17T11:46:42;8.35;;;5.53;;
20861;SDS011;10591;52.532;13.348;2023-08-17T11:49:13;6.00;;;5.50;;
20861;SDS011;10591;52.532;13.348;2023-08-17T11:51:43;5.65;;;5.15;;
20861;SDS011;10591;52.532;13.348;2023-08-17T11:54:14;6.22;;;5.62;;
20861;SDS011;10591;52.532;13.348;2023-08-17T11:56:45;5.47;;;4.90;;
20861;SDS011;10591;52.532;13.348;2023-08-17T11:59:16;12.58;;;5.55;;
20861;SDS011;10591;52.532;13.348;2023-08-17T12:01:50;5.90;;;5.40;;
20861;SDS011;10591;52.532;13.348;2023-08-17T12:04:21;5.65;;;5.15;;
20861;SDS011;10591;52.532;13.348;2023-08-17T12:06:53;5.72;;;5.17;;
20861;SDS011;10591;52.532;13.348;2023-08-17T12:09:25;5.92;;;5.45;;
20861;SDS011;10591;52.532;13.348;2023-08-17T12:11:59;6.37;;;5.67;;
20861;SDS011;10591;52.532;13.348;2023-08-17T12:14:30;6.58;;;5.87;;
20861;SDS011;10591;52.532;13.348;2023-08-17T12:17:01;5.95;;;5.40;;
20861;SDS011;10591;52.532;13.348;2023-08-17T12:19:32;6.95;;;5.53;;
20861;SDS011;10591;52.532;13.348;2023-08-17T12:22:03;7.92;;;5.75;;
20861;SDS011;10591;52.532;13.348;2023-08-17T12:24:34;7.05;;;5.70;;
20861;SDS011;10591;52.532;13.348;2023-08-17T12:27:06;6.53;;;5.67;;
20861;SDS011;10591;52.532;13.348;2023-08-17T12:29:50;6.08;;;5.42;;
20861;SDS011;10591;52.532;13.348;2023-08-17T12:32:21;17.07;;;7.25;;
20861;SDS011;10591;52.532;13.348;2023-08-17T12:34:52;6.47;;;5.78;;
20861;SDS011;10591;52.532;13.348;2023-08-17T12:37:23;6.72;;;5.83;;
20861;SDS011;10591;52.532;13.348;2023-08-17T12:39:54;7.28;;;5.70;;
20861;SDS011;10591;52.532;13.348;2023-08-17T12:42:24;6.15;;;5.65;;
20861;SDS011;10591;52.532;13.348;2023-08-17T12:44:55;6.83;;;6.10;;
20861;SDS011;10591;52.532;13.348;2023-08-17T12:47:26;6.90;;;6.20;;
20861;SDS011;10591;52.532;13.348;2023-08-17T12:49:58;6.65;;;6.15;;
20861;SDS011;10591;52.532;13.348;2023-08-17T12:52:29;6.87;;;6.17;;
20861;SDS011;10591;52.532;13.348;2023-08-17T12:55:00;6.85;;;6.35;;
20861;SDS011;10591;52.532;13.348;2023-08-17T12:57:30;6.50;;;5.90;;
20861;SDS011;10591;52.532;13.348;2023-08-17T13:00:03;7.08;;;6.37;;
20861;SDS011;10591;52.532;13.348;2023-08-17T13:02:35;6.90;;;6.33;;
20861;SDS011;10591;52.532;13.348;2023-08-17T13:05:06;7.33;;;6.62;;
20861;SDS011;10591;52.532;13.348;2023-08-17T13:07:37;6.67;;;6.15;;
20861;SDS011;10591;52.532;13.348;2023-08-17T13:10:07;6.58;;;5.85;;
20861;SDS011;10591;52.532;13.348;2023-08-17T13:12:38;7.30;;;6.12;;
20861;SDS011;10591;52.532;13.348;2023-08-17T13:15:09;7.97;;;5.97;;
20861;SDS011;10591;52.532;13.348;2023-08-17T13:17:40;7.95;;;6.37;;
20861;SDS011;10591;52.532;13.348;2023-08-17T13:20:11;6.42;;;5.85;;
20861;SDS011;10591;52.532;13.348;2023-08-17T13:22:42;6.80;;;6.15;;
20861;SDS011;10591;52.532;13.348;2023-08-17T13:25:13;6.75;;;6.10;;
20861;SDS011;10591;52.532;13.348;2023-08-17T13:27:44;6.47;;;5.97;;
20861;SDS011;10591;52.532;13.348;2023-08-17T13:30:15;6.60;;;6.00;;
20861;SDS011;10591;52.532;13.348;2023-08-17T13:32:46;6.62;;;6.08;;
20861;SDS011;10591;52.532;13.348;2023-08-17T13:35:17;6.28;;;5.75;;
20861;SDS011;10591;52.532;13.348;2023-08-17T13:37:52;6.80;;;6.20;;
20861;SDS011;10591;52.532;13.348;2023-08-17T13:40:23;6.33;;;5.83;;
20861;SDS011;10591;52.532;13.348;2023-08-17T13:42:57;6.70;;;5.85;;
20861;SDS011;10591;52.532;13.348;2023-08-17T13:45:28;6.22;;;5.72;;
20861;SDS011;10591;52.532;13.348;2023-08-17T13:48:00;6.55;;;6.00;;
20861;SDS011;10591;52.532;13.348;2023-08-17T13:50:30;6.67;;;6.15;;
20861;SDS011;10591;52.532;13.348;2023-08-17T13:53:01;6.67;;;6.12;;
20861;SDS011;10591;52.532;13.348;2023-08-17T13:55:32;6.42;;;5.92;;
20861;SDS011;10591;52.532;13.348;2023-08-17T13:58:03;5.97;;;5.58;;
20861;SDS011;10591;52.532;13.348;2023-08-17T14:00:35;5.97;;;5.47;;
20861;SDS011;10591;52.532;13.348;2023-08-17T14:03:08;11.22;;;8.20;;
20861;SDS011;10591;52.532;13.348;2023-08-17T14:05:39;6.50;;;6.00;;
20861;SDS011;10591;52.532;13.348;2023-08-17T14:08:09;6.42;;;5.90;;
20861;SDS011;10591;52.532;13.348;2023-08-17T14:10:40;6.37;;;5.78;;
20861;SDS011;10591;52.532;13.348;2023-08-17T14:13:11;6.55;;;5.95;;
20861;SDS011;10591;52.532;13.348;2023-08-17T14:15:41;6.65;;;6.05;;
20861;SDS011;10591;52.532;13.348;2023-08-17T14:18:14;6.95;;;6.33;;
20861;SDS011;10591;52.532;13.348;2023-08-17T14:20:44;6.37;;;5.78;;
20861;SDS011;10591;52.532;13.348;2023-08-17T14:23:15;6.08;;;5.60;;
20861;SDS011;10591;52.532;13.348;2023-08-17T14:25:46;6.60;;;6.00;;
20861;SDS011;10591;52.532;13.348;2023-08-17T14:28:16;6.58;;;5.97;;
20861;SDS011;10591;52.532;13.348;2023-08-17T14:30:47;7.03;;;6.42;;
20861;SDS011;10591;52.532;13.348;2023-08-17T14:33:19;6.08;;;5.60;;
20861;SDS011;10591;52.532;13.348;2023-08-17T14:35:52;6.28;;;5.67;;
20861;SDS011;10591;52.532;13.348;2023-08-17T14:38:23;6.75;;;6.03;;
20861;SDS011;10591;52.532;13.348;2023-08-17T14:40:55;6.20;;;5.65;;
20861;SDS011;10591;52.532;13.348;2023-08-17T14:43:25;6.15;;;5.53;;
20861;SDS011;10591;52.532;13.348;2023-08-17T14:45:56;5.53;;;5.03;;
20861;SDS011;10591;52.532;13.348;2023-08-17T14:48:27;7.05;;;6.45;;
20861;SDS011;10591;52.532;13.348;2023-08-17T14:50:58;5.92;;;5.45;;
20861;SDS011;10591;52.532;13.348;2023-08-17T14:53:28;5.70;;;5.30;;
20861;SDS011;10591;52.532;13.348;2023-08-17T14:55:59;6.67;;;5.60;;
20861;SDS011;10591;52.532;13.348;2023-08-17T14:58:30;5.67;;;5.28;;
20861;SDS011;10591;52.532;13.348;2023-08-17T15:01:00;5.87;;;5.45;;
20861;SDS011;10591;52.532;13.348;2023-08-17T15:03:32;7.47;;;5.42;;
20861;SDS011;10591;52.532;13.348;2023-08-17T15:06:03;5.70;;;5.30;;
20861;SDS011;10591;52.532;13.348;2023-08-17T15:08:35;5.70;;;5.22;;
20861;SDS011;10591;52.532;13.348;2023-08-17T15:11:06;6.10;;;5.58;;
20861;SDS011;10591;52.532;13.348;2023-08-17T15:13:36;5.60;;;5.10;;